TimeCST,TemperatureF,Dew PointF,Humidity,Sea Level PressureIn,VisibilityMPH,Wind Direction,Wind SpeedMPH,Gust SpeedMPH,PrecipitationIn,Events,Conditions,WindDirDegrees,DateUTC
12:15 AM,30.7,26.2,83,29.81,10.0,West,16.1,-,N/A,,Overcast,270,2014-01-12 06:15:00
12:35 AM,30.4,26.2,85,29.80,10.0,West,10.4,18.4,N/A,,Overcast,280,2014-01-12 06:35:00
12:55 AM,30.2,26.6,86,29.81,10.0,West,9.2,-,N/A,,Overcast,270,2014-01-12 06:55:00
1:15 AM,30.2,26.4,86,29.82,10.0,West,9.2,-,N/A,,Overcast,270,2014-01-12 07:15:00
1:35 AM,30.2,25.7,83,29.83,10.0,West,13.8,18.4,N/A,,Overcast,270,2014-01-12 07:35:00
1:55 AM,30.0,25.7,84,29.84,10.0,West,13.8,-,N/A,,Overcast,260,2014-01-12 07:55:00
2:15 AM,29.8,25.7,85,29.84,10.0,West,10.4,-,N/A,,Overcast,280,2014-01-12 08:15:00
2:35 AM,29.8,25.7,85,29.84,10.0,West,10.4,-,N/A,,Overcast,260,2014-01-12 08:35:00
2:55 AM,29.7,25.7,85,29.83,10.0,West,11.5,-,N/A,,Overcast,270,2014-01-12 08:55:00
3:15 AM,29.5,25.7,86,29.84,10.0,West,9.2,17.3,N/A,,Overcast,280,2014-01-12 09:15:00
3:35 AM,29.7,25.7,85,29.84,7.0,West,12.7,-,N/A,,Overcast,270,2014-01-12 09:35:00
3:55 AM,29.7,26.2,87,29.86,10.0,WSW,11.5,-,N/A,,Overcast,250,2014-01-12 09:55:00
4:15 AM,29.3,26.1,88,29.85,10.0,WSW,10.4,-,N/A,,Overcast,250,2014-01-12 10:15:00
4:35 AM,29.3,26.1,88,29.85,10.0,SW,9.2,-,N/A,,Overcast,230,2014-01-12 10:35:00
4:55 AM,29.3,26.2,88,29.84,10.0,WSW,6.9,-,N/A,,Overcast,240,2014-01-12 10:55:00
5:15 AM,29.3,26.4,89,29.85,10.0,WSW,9.2,-,N/A,,Overcast,240,2014-01-12 11:15:00
5:35 AM,29.3,26.6,90,29.86,7.0,WSW,10.4,-,N/A,,Overcast,250,2014-01-12 11:35:00
5:55 AM,29.3,26.1,88,29.86,7.0,SW,10.4,-,N/A,,Overcast,230,2014-01-12 11:55:00
6:15 AM,29.3,26.2,88,29.86,5.0,SW,9.2,-,N/A,,Overcast,230,2014-01-12 12:15:00
6:35 AM,29.7,26.8,89,29.87,7.0,SW,11.5,-,N/A,,Overcast,230,2014-01-12 12:35:00
6:55 AM,29.3,26.8,90,29.85,7.0,SSW,11.5,-,N/A,,Overcast,200,2014-01-12 12:55:00
7:15 AM,29.3,27.3,92,29.85,5.0,SSW,11.5,-,N/A,,Overcast,200,2014-01-12 13:15:00
7:35 AM,29.3,29.1,99,29.86,4.0,SSW,12.7,-,N/A,,Overcast,200,2014-01-12 13:35:00
7:55 AM,29.3,29.3,100,29.85,5.0,South,16.1,-,N/A,,Overcast,190,2014-01-12 13:55:00
8:15 AM,29.7,29.7,100,29.86,7.0,South,16.1,-,N/A,,Overcast,180,2014-01-12 14:15:00
8:35 AM,29.3,29.3,100,29.86,7.0,South,16.1,-,N/A,,Overcast,190,2014-01-12 14:35:00
8:55 AM,29.8,29.8,100,29.87,5.0,South,13.8,-,N/A,,Overcast,190,2014-01-12 14:55:00
9:15 AM,30.2,30.2,100,29.88,4.0,South,16.1,-,N/A,,Overcast,190,2014-01-12 15:15:00
9:35 AM,30.6,30.4,99,29.89,5.0,South,12.7,17.3,N/A,,Overcast,180,2014-01-12 15:35:00
9:55 AM,31.1,28.0,88,29.87,7.0,South,18.4,23.0,N/A,,Overcast,180,2014-01-12 15:55:00
10:15 AM,31.3,28.4,89,29.86,10.0,South,16.1,23.0,N/A,,Overcast,170,2014-01-12 16:15:00
10:35 AM,32.0,28.6,87,29.84,10.0,South,19.6,-,N/A,,Overcast,170,2014-01-12 16:35:00
10:55 AM,32.0,28.8,88,29.83,10.0,South,19.6,-,N/A,,Scattered Clouds,180,2014-01-12 16:55:00
11:15 AM,32.5,29.3,88,29.81,10.0,South,20.7,-,N/A,,Scattered Clouds,180,2014-01-12 17:15:00
11:35 AM,33.3,29.8,87,29.79,10.0,South,19.6,-,N/A,,Scattered Clouds,170,2014-01-12 17:35:00
11:55 AM,33.8,30.0,86,29.77,10.0,South,17.3,-,N/A,,Clear,180,2014-01-12 17:55:00
12:15 PM,34.3,30.2,85,29.75,7.0,South,20.7,26.5,N/A,,Clear,180,2014-01-12 18:15:00
12:35 PM,34.9,30.4,84,29.74,7.0,South,19.6,27.6,N/A,,Clear,180,2014-01-12 18:35:00
12:55 PM,36.0,30.7,81,29.73,10.0,South,20.7,26.5,N/A,,Clear,190,2014-01-12 18:55:00
1:15 PM,36.0,30.9,82,29.71,10.0,South,21.9,-,N/A,,Clear,180,2014-01-12 19:15:00
1:35 PM,37.4,31.3,79,29.70,10.0,South,21.9,-,N/A,,Clear,180,2014-01-12 19:35:00
1:55 PM,37.6,31.1,77,29.68,10.0,South,25.3,32.2,N/A,,Clear,180,2014-01-12 19:55:00
2:15 PM,38.3,31.6,77,29.68,10.0,South,23.0,28.8,N/A,,Clear,190,2014-01-12 20:15:00
2:35 PM,38.3,31.1,75,29.67,10.0,South,24.2,29.9,N/A,,Clear,180,2014-01-12 20:35:00
2:55 PM,38.3,31.6,77,29.66,10.0,South,27.6,33.4,N/A,,Clear,180,2014-01-12 20:55:00
3:15 PM,38.3,31.5,76,29.65,10.0,South,20.7,28.8,N/A,,Clear,170,2014-01-12 21:15:00
3:35 PM,38.7,31.8,76,29.64,10.0,South,20.7,27.6,N/A,,Clear,180,2014-01-12 21:35:00
3:55 PM,38.8,31.8,76,29.64,10.0,South,20.7,31.1,N/A,,Clear,180,2014-01-12 21:55:00
4:15 PM,39.6,31.5,73,29.63,10.0,South,24.2,29.9,N/A,,Clear,190,2014-01-12 22:15:00
4:35 PM,39.2,31.6,74,29.64,10.0,South,21.9,27.6,N/A,,Clear,190,2014-01-12 22:35:00
4:55 PM,38.7,32.0,77,29.65,10.0,South,17.3,25.3,N/A,,Clear,190,2014-01-12 22:55:00
5:15 PM,38.5,32.0,78,29.65,10.0,South,20.7,26.5,N/A,,Clear,190,2014-01-12 23:15:00
5:35 PM,39.0,32.0,76,29.65,10.0,South,19.6,26.5,N/A,,Clear,190,2014-01-12 23:35:00
5:55 PM,39.4,32.0,75,29.65,10.0,South,20.7,25.3,N/A,,Clear,190,2014-01-12 23:55:00
6:15 PM,39.4,32.0,75,29.65,10.0,South,23.0,31.1,N/A,,Clear,190,2014-01-13 00:15:00
6:35 PM,39.2,32.0,75,29.65,10.0,South,19.6,28.8,N/A,,Clear,190,2014-01-13 00:35:00
6:55 PM,39.6,32.0,74,29.65,10.0,SSW,23.0,31.1,N/A,,Clear,200,2014-01-13 00:55:00
7:15 PM,39.6,32.0,74,29.65,10.0,SSW,19.6,26.5,N/A,,Clear,200,2014-01-13 01:15:00
7:35 PM,39.2,32.0,75,29.65,10.0,SSW,19.6,26.5,N/A,,Clear,200,2014-01-13 01:35:00
7:55 PM,39.9,32.0,73,29.65,10.0,SSW,20.7,27.6,N/A,,Clear,200,2014-01-13 01:55:00
8:15 PM,40.3,32.0,72,29.64,10.0,SSW,20.7,25.3,N/A,,Clear,200,2014-01-13 02:15:00
8:35 PM,41.2,32.0,70,29.63,10.0,SSW,21.9,31.1,N/A,,Clear,200,2014-01-13 02:35:00
8:55 PM,41.9,32.0,68,29.63,10.0,SSW,24.2,34.5,N/A,,Clear,210,2014-01-13 02:55:00
9:15 PM,42.1,32.0,67,29.62,10.0,SSW,24.2,32.2,N/A,,Clear,210,2014-01-13 03:15:00
9:35 PM,42.8,32.0,66,29.62,10.0,SSW,29.9,39.1,N/A,,Clear,210,2014-01-13 03:35:00
9:55 PM,43.0,32.0,65,29.62,10.0,SSW,31.1,39.1,N/A,,Clear,210,2014-01-13 03:55:00
10:15 PM,42.3,32.0,67,29.61,10.0,SSW,26.5,38.0,N/A,,Clear,210,2014-01-13 04:15:00
10:35 PM,42.3,32.0,67,29.61,10.0,SSW,28.8,36.8,N/A,,Clear,210,2014-01-13 04:35:00
10:55 PM,42.1,32.0,67,29.61,10.0,SW,23.0,34.5,N/A,,Clear,220,2014-01-13 04:55:00
11:15 PM,41.9,32.0,68,29.61,10.0,SSW,25.3,31.1,N/A,,Clear,210,2014-01-13 05:15:00
11:35 PM,41.5,32.0,69,29.60,10.0,SSW,23.0,-,N/A,,Clear,210,2014-01-13 05:35:00
11:55 PM,41.4,32.0,69,29.60,10.0,SSW,21.9,31.1,N/A,,Clear,210,2014-01-13 05:55:00